Friday, November 17, 2017, 2:34 PM EST
Back to Local

KGNR, Greenville

Location: Greenville, ME, United States Lat: 45.467
Local Time: 2:34 PM EST (19:34 GMT) Lon: -69.583
Time Zone: US/Eastern Elev: 1400 ft

Show me the last for .
Show Decoded

2017-11-17 13:56 METAR KGNR 171856Z AUTO 31021G41KT M04/M07 A2966 RMK AO1 PK WND 31041/1849
                 SLP061 T10441067 =
2017-11-17 12:56 METAR KGNR 171756Z AUTO 30016G31KT M04/M06 A2967 RMK AO1 PK WND 33034/1726
                 SLP064 T10391061 10017 21039 53013 =
2017-11-17 11:56 METAR KGNR 171656Z AUTO 31024G33KT M03/M05 A2965 RMK AO1 PK WND 31033/1655
                 SLP058 T10331050 =
2017-11-17 10:56 METAR KGNR 171556Z AUTO 31017G34KT 280V340 M02/M04 A2963 RMK AO1 PK WND
                 30034/1548 SLP053 T10221039 =
2017-11-17 09:56 METAR KGNR 171456Z AUTO 30015G29KT 270V330 M01/M02 A2963 RMK AO1 PK WND
                 32030/1413 SLP050 T10111022 51023 =
2017-11-17 08:56 METAR KGNR 171356Z AUTO 32016G30KT 00/M01 A2961 RMK AO1 PK WND 30036/1327 SLP043
                 T00001011 =
2017-11-17 07:56 METAR KGNR 171256Z AUTO 31016G25KT 01/00 A2958 RMK AO1 PK WND 32032/1235 SLP034
                 T00060000 =
2017-11-16 20:56 METAR KGNR 170156Z AUTO 30004KT 00/00 A2961 RMK AO1 SLP044 T00000000 =
2017-11-16 19:56 METAR KGNR 170056Z AUTO 00000KT 00/00 A2964 RMK AO1 SLP054 P0001 T00000000 =
2017-11-16 18:56 METAR KGNR 162356Z AUTO 11005KT 00/00 A2967 RMK AO1 SLP064 P0002 60011 T00000000
                 10000 21011 58019 =
2017-11-16 17:56 METAR KGNR 162256Z AUTO 13009KT 00/00 A2969 RMK AO1 SLP072 P0004 T00000000 =
2017-11-16 16:56 METAR KGNR 162156Z AUTO 12010KT 00/00 A2971 RMK AO1 SLP079 P0003 T00000000 =
2017-11-16 15:56 METAR KGNR 162056Z AUTO 13006KT 00/00 A2972 RMK AO1 SLP083 60002 T00000000 56021
                 =
2017-11-16 14:56 METAR KGNR 161956Z AUTO 10007KT 00/00 A2973 RMK AO1 SLP084 T00000000 =

Support USWX by starting your Amazon purchase here.